Quincy, IL

2:40 AM CST on February 12, 2016 (GMT -0600)
KB9HGI - N 17th St. | | Change Station
CLOSE
Current Station
Personal Weather Station
Location: Quincy, IL
Elevation: 614 ft
Nearby Weather Stations

Elev 614 ft 39.95 °N, 91.38 °W | Updated 1 second ago

Overcast
Overcast
22.0 °F
Feels Like 22 °F
N
0.0
Wind Variable Wind from ENE
Gusts 0.0 mph

Today
High -- | Low -- °F
--% Chance of Precip.
Yesterday
High -- | Low -- °F
Precip. -- in
Pressure 30.22 in
Visibility 3.0 miles
Clouds Scattered Clouds 2100 ft
Overcast 8500 ft
Windchill 22 °F
Dew Point 19 °F
Humidity 89%
Rainfall 0.00 in
Snow Depth Not available.
7:02 AM 5:37 PM
Waxing Crescent, 18% visible
SPECI KUIN 120804Z AUTO 00000KT 3SM -SN BR SCT021 OVC085 M07/M08 A3022 RMK AO2 P0000 T10671083
Pressure 30.22 in
Visibility 3.0 miles
Clouds Scattered Clouds 2100 ft
Overcast 8500 ft
Windchill 22 °F
Dew Point 19 °F
Humidity 89%
Rainfall 0.00 in
Snow Depth Not available.
7:02 AM 5:37 PM
Waxing Crescent, 18% visible
SPECI KUIN 120804Z AUTO 00000KT 3SM -SN BR SCT021 OVC085 M07/M08 A3022 RMK AO2 P0000 T10671083

10-Day Weather Forecast

Almanac

Astronomy

Feb. 12, 2016 Rise Set
Actual Time
Civil Twilight
Nautical Twilight
Astronomical Twilight
Moon
Length of Visible Light
Length of Day
Tomorrow will be .
, % of the Moon is Illuminated

Today's Extremes

State Highs State Lows

Community

WunderPhotos

Upload Photos

1,892,284 photos uploaded!

WunderBlog® & News

Nearby

Air Quality

  Air Quality AQ Index Pollutant
Not available.

Snow Depth

Station Depth Elevation

Earthquake Activity

City Distance Mag. Time & Date
Minimum magnitude displayed is 2.5.

Coastal Water Temperatures

Place Temperature

Stations

Nearby Weather Stations

Station Location Temp. Windchill Dew Point Humidity Wind Precip. Elev Updated Type
                   

Watches & Warnings

There are currently no watches in effect.